createdAt,value
2023-01-25T00:02:15.253Z,11.52
2023-01-25T00:06:01.745Z,11.60
2023-01-25T00:09:43.812Z,10.95
2023-01-25T00:13:26.367Z,12.20
2023-01-25T00:17:08.386Z,10.70
2023-01-25T00:20:50.371Z,11.57
2023-01-25T00:24:32.309Z,11.63
2023-01-25T00:28:14.252Z,11.90
2023-01-25T00:32:07.434Z,12.32
2023-01-25T00:35:49.518Z,12.80
2023-01-25T00:39:31.460Z,12.90
2023-01-25T00:43:14.775Z,12.65
2023-01-25T00:46:56.733Z,12.50
2023-01-25T00:50:38.833Z,13.27
2023-01-25T00:54:20.995Z,13.57
2023-01-25T00:58:02.960Z,13.68
2023-01-25T01:01:45.005Z,14.20
2023-01-25T01:05:28.716Z,13.18
2023-01-25T01:09:16.457Z,13.00
2023-01-25T01:12:58.383Z,13.15
2023-01-25T01:16:40.476Z,12.65
2023-01-25T01:20:23.242Z,12.15
2023-01-25T01:24:05.698Z,13.10
2023-01-25T01:27:47.689Z,12.88
2023-01-25T01:31:29.768Z,12.63
2023-01-25T01:35:11.766Z,13.60
2023-01-25T01:38:53.787Z,12.70
2023-01-25T01:42:56.402Z,12.23
2023-01-25T01:46:41.857Z,12.80
2023-01-25T01:50:25.775Z,12.82
2023-01-25T01:54:28.491Z,13.65
2023-01-25T01:58:10.587Z,13.93
2023-01-25T02:01:53.010Z,13.63
2023-01-25T02:05:38.487Z,14.27
2023-01-25T02:09:24.764Z,12.95
2023-01-25T02:13:06.776Z,12.80
2023-01-25T02:16:48.801Z,13.98
2023-01-25T02:20:35.587Z,14.90
2023-01-25T02:28:07.204Z,15.02
2023-01-25T02:31:52.610Z,16.20
2023-01-25T02:35:48.971Z,16.02
2023-01-25T02:39:31.467Z,17.43
2023-01-25T02:43:14.190Z,16.58
2023-01-25T02:46:56.346Z,16.77
2023-01-25T02:50:38.331Z,15.93
2023-01-25T02:54:20.953Z,16.50
2023-01-25T02:58:02.957Z,17.58
2023-01-25T03:01:45.517Z,17.15
2023-01-25T03:05:27.632Z,16.52
2023-01-25T03:09:11.709Z,17.73
2023-01-25T03:12:54.011Z,19.10
2023-01-25T03:16:36.016Z,16.85
2023-01-25T03:20:18.196Z,16.90
2023-01-25T03:24:02.473Z,17.92
2023-01-25T03:27:44.585Z,19.05
2023-01-25T03:31:26.696Z,17.98
2023-01-25T03:35:09.469Z,17.35
2023-01-25T03:38:52.827Z,18.38
2023-01-25T03:42:34.789Z,17.40
2023-01-25T03:46:16.738Z,17.38
2023-01-25T03:49:58.672Z,15.82
2023-01-25T03:53:40.589Z,16.27
2023-01-25T03:57:22.529Z,15.80
2023-01-25T04:01:05.944Z,16.33
2023-01-25T04:04:47.980Z,16.42
2023-01-25T04:08:30.704Z,17.02
2023-01-25T04:12:12.680Z,16.92
2023-01-25T04:15:55.213Z,17.30
2023-01-25T04:19:37.612Z,17.95
2023-01-25T04:23:19.891Z,17.50
2023-01-25T04:27:01.845Z,17.42
2023-01-25T04:30:43.793Z,18.70
2023-01-25T04:34:25.803Z,17.17
2023-01-25T04:38:07.997Z,17.60
2023-01-25T04:41:49.996Z,18.73
2023-01-25T04:45:32.194Z,18.75
2023-01-25T04:49:14.235Z,16.85
2023-01-25T04:52:56.429Z,18.20
2023-01-25T04:56:38.864Z,18.58
2023-01-25T05:00:21.628Z,18.63
2023-01-25T05:04:03.793Z,17.83
2023-01-25T05:07:45.766Z,18.30
2023-01-25T05:11:27.740Z,18.33
2023-01-25T05:15:10.430Z,17.98
2023-01-25T05:18:54.382Z,17.63
2023-01-25T05:22:36.367Z,16.55
2023-01-25T05:26:36.718Z,16.98
2023-01-25T05:30:18.749Z,16.48
2023-01-25T05:34:00.682Z,16.98
2023-01-25T05:37:42.608Z,17.45
2023-01-25T05:41:24.574Z,16.92
2023-01-25T05:45:07.862Z,16.13
2023-01-25T05:48:49.940Z,16.17
2023-01-25T05:52:31.892Z,16.13
2023-01-25T05:56:13.946Z,16.17
2023-01-25T05:59:55.930Z,16.35
2023-01-25T06:03:38.099Z,16.52
2023-01-25T06:07:20.142Z,16.88
2023-01-25T06:11:10.204Z,16.05
2023-01-25T06:14:52.161Z,17.17
2023-01-25T06:18:35.599Z,16.77
2023-01-25T06:22:17.504Z,15.70
2023-01-25T06:26:05.442Z,16.92
2023-01-25T06:29:47.331Z,16.85
2023-01-25T06:33:29.318Z,17.38
2023-01-25T06:37:11.281Z,17.65
2023-01-25T06:40:53.227Z,17.48
2023-01-25T06:44:35.259Z,17.73
2023-01-25T06:48:17.402Z,17.73
2023-01-25T06:52:01.239Z,17.42
2023-01-25T06:55:43.390Z,17.73
2023-01-25T06:59:25.378Z,17.60
2023-01-25T07:03:07.344Z,17.60
2023-01-25T07:06:49.333Z,17.27
2023-01-25T07:10:33.071Z,17.48
2023-01-25T07:14:15.867Z,17.23
2023-01-25T07:18:05.524Z,16.52
2023-01-25T07:21:54.113Z,15.60
2023-01-25T07:25:36.061Z,16.33
2023-01-25T07:29:18.023Z,17.27
2023-01-25T07:32:59.947Z,17.77
2023-01-25T07:36:43.847Z,15.93
2023-01-25T07:40:25.837Z,15.45
2023-01-25T07:44:07.749Z,16.35
2023-01-25T07:47:50.155Z,16.80
2023-01-25T07:51:32.083Z,16.15
2023-01-25T07:55:14.165Z,15.25
2023-01-25T07:58:57.957Z,16.13
2023-01-25T08:02:40.672Z,15.10
2023-01-25T08:06:31.269Z,16.15
2023-01-25T08:10:13.223Z,15.55
2023-01-25T08:13:55.612Z,14.95
2023-01-25T08:17:37.579Z,14.10
2023-01-25T08:21:19.812Z,14.13
2023-01-25T08:25:01.976Z,13.95
2023-01-25T08:28:44.298Z,13.25
2023-01-25T08:32:26.296Z,13.75
2023-01-25T08:36:09.834Z,13.38
2023-01-25T08:39:51.890Z,13.70
2023-01-25T08:43:34.578Z,13.23
2023-01-25T08:47:16.515Z,14.18
2023-01-25T08:50:58.868Z,13.30
2023-01-25T08:54:44.410Z,16.48
2023-01-25T08:58:26.474Z,15.90
2023-01-25T09:02:13.067Z,13.25
2023-01-25T09:05:55.067Z,13.43
2023-01-25T09:09:37.065Z,12.48
2023-01-25T09:13:19.081Z,12.57
2023-01-25T09:17:01.097Z,12.65
2023-01-25T09:20:43.040Z,11.95
2023-01-25T09:24:25.049Z,11.93
2023-01-25T09:28:11.537Z,12.60
2023-01-25T09:31:53.679Z,11.38
2023-01-25T09:35:37.386Z,13.05
2023-01-25T09:39:20.810Z,11.45
2023-01-25T09:43:21.068Z,11.85
2023-01-25T09:47:12.847Z,12.02
2023-01-25T09:51:14.618Z,12.60
2023-01-25T09:54:56.949Z,12.85
2023-01-25T09:58:43.558Z,13.10
2023-01-25T10:02:52.096Z,14.27
2023-01-25T10:06:40.798Z,13.55
2023-01-25T10:10:38.465Z,13.13
2023-01-25T10:14:21.674Z,12.20
2023-01-25T10:18:23.760Z,13.35
2023-01-25T10:22:19.417Z,13.00
2023-01-25T10:26:09.916Z,12.60
2023-01-25T10:29:55.894Z,13.07
2023-01-25T10:33:43.550Z,13.97
2023-01-25T10:37:30.799Z,11.95
2023-01-25T10:41:38.142Z,13.10
2023-01-25T10:45:23.099Z,13.27
2023-01-25T10:49:22.875Z,12.18
2023-01-25T10:53:04.977Z,11.80
2023-01-25T10:56:47.422Z,11.55
2023-01-25T11:00:39.589Z,12.10
2023-01-25T11:04:32.030Z,12.45
2023-01-25T11:08:32.111Z,12.18
2023-01-25T11:12:21.732Z,11.07
2023-01-25T11:16:06.669Z,10.77
2023-01-25T11:19:48.569Z,9.77
2023-01-25T11:23:32.283Z,10.50
2023-01-25T11:27:26.620Z,10.60
2023-01-25T11:31:14.042Z,10.73
2023-01-25T11:34:56.009Z,10.35
2023-01-25T11:38:41.003Z,10.85
2023-01-25T11:42:22.881Z,12.10
2023-01-25T11:46:14.170Z,12.25
2023-01-25T11:50:32.116Z,14.93
2023-01-25T11:54:30.253Z,11.90
2023-01-25T11:58:20.182Z,13.57
2023-01-25T12:02:20.722Z,12.00
2023-01-25T12:06:24.200Z,10.32
2023-01-25T12:10:42.012Z,10.13
2023-01-25T12:14:37.600Z,11.45
2023-01-25T12:18:33.877Z,9.55
2023-01-25T12:22:45.774Z,9.83
2023-01-25T12:26:36.733Z,9.48
2023-01-25T12:30:49.119Z,9.77
2023-01-25T12:34:33.981Z,9.85
2023-01-25T12:38:23.086Z,10.27
2023-01-25T12:42:21.548Z,10.57
2023-01-25T12:46:14.823Z,10.15
2023-01-25T12:50:15.901Z,11.57
2023-01-25T12:53:59.085Z,11.50
2023-01-25T12:57:46.813Z,6.63
2023-01-25T13:01:50.369Z,5.20
2023-01-25T13:05:46.012Z,5.28
2023-01-25T13:09:45.446Z,5.00
2023-01-25T13:13:28.990Z,5.50
2023-01-25T13:17:33.254Z,5.80
2023-01-25T13:21:40.329Z,6.47
2023-01-25T13:25:27.359Z,7.00
2023-01-25T13:29:28.098Z,7.70
2023-01-25T13:33:09.988Z,7.63
2023-01-25T13:36:54.020Z,8.57
2023-01-25T13:40:37.781Z,8.63
2023-01-25T13:44:28.514Z,7.95
2023-01-25T13:48:19.174Z,8.73
2023-01-25T13:52:02.099Z,8.63
2023-01-25T13:55:52.570Z,8.98
2023-01-25T13:59:34.550Z,9.43
2023-01-25T14:03:17.011Z,9.80
2023-01-25T14:07:09.754Z,8.85
2023-01-25T14:10:52.558Z,8.20
2023-01-25T14:14:36.007Z,7.90
2023-01-25T14:18:19.508Z,8.25
2023-01-25T14:22:21.883Z,8.43
2023-01-25T14:26:03.995Z,8.23
2023-01-25T14:29:49.327Z,7.40
2023-01-25T14:33:33.474Z,6.75
2023-01-25T14:37:20.932Z,10.68
2023-01-25T14:41:12.986Z,11.43
2023-01-25T14:44:55.074Z,10.85
2023-01-25T14:48:41.800Z,10.40
2023-01-25T14:52:27.361Z,11.20
2023-01-25T14:56:36.824Z,11.23
2023-01-25T15:00:24.437Z,11.88
2023-01-25T15:04:12.406Z,11.43
2023-01-25T15:07:58.748Z,11.93
2023-01-25T15:11:49.184Z,11.85
2023-01-25T15:15:33.814Z,13.68
2023-01-25T15:19:51.833Z,11.38
2023-01-25T15:23:34.135Z,11.95
2023-01-25T15:27:18.343Z,11.32
2023-01-25T15:31:01.029Z,10.70
2023-01-25T15:34:43.027Z,11.38
2023-01-25T15:38:25.725Z,11.45
2023-01-25T15:42:07.609Z,11.43
2023-01-25T15:45:51.512Z,11.98
2023-01-25T15:49:36.965Z,11.93
2023-01-25T15:53:19.932Z,12.45
2023-01-25T15:57:02.039Z,12.10
2023-01-25T16:00:44.841Z,11.43
2023-01-25T16:04:26.795Z,11.70
2023-01-25T16:08:15.708Z,12.20
2023-01-25T16:12:00.547Z,12.95
2023-01-25T16:15:42.602Z,12.40
2023-01-25T16:19:25.180Z,12.50
2023-01-25T16:23:08.485Z,11.95
2023-01-25T16:26:54.562Z,11.32
2023-01-25T16:30:36.522Z,12.15
2023-01-25T16:34:20.222Z,13.82
2023-01-25T16:38:02.185Z,15.05
2023-01-25T16:41:44.072Z,14.07
2023-01-25T16:45:26.048Z,13.02
2023-01-25T16:49:09.422Z,12.38
2023-01-25T16:52:51.759Z,11.95
2023-01-25T16:56:33.875Z,17.65
2023-01-25T17:00:16.363Z,18.80
2023-01-25T17:03:58.709Z,18.48
2023-01-25T17:07:40.734Z,15.43
2023-01-25T17:11:23.889Z,14.60
2023-01-25T17:15:06.407Z,14.43
2023-01-25T17:18:53.461Z,17.02
2023-01-25T17:22:37.510Z,16.73
2023-01-25T17:26:21.561Z,15.52
2023-01-25T17:30:03.812Z,13.15
2023-01-25T17:33:46.411Z,14.90
2023-01-25T17:37:28.327Z,17.65
2023-01-25T17:41:13.620Z,15.48
2023-01-25T17:44:55.521Z,16.42
2023-01-25T17:48:37.404Z,14.27
2023-01-25T17:52:19.311Z,12.68
2023-01-25T17:56:03.257Z,12.48
2023-01-25T17:59:49.122Z,12.38
2023-01-25T18:03:31.156Z,12.52
2023-01-25T18:07:13.042Z,11.75
2023-01-25T18:10:59.040Z,11.10
2023-01-25T18:14:40.909Z,11.70
2023-01-25T18:18:23.738Z,10.93
2023-01-25T18:22:05.741Z,10.57
2023-01-25T18:25:48.199Z,10.75
2023-01-25T18:29:45.638Z,11.02
2023-01-25T18:33:28.026Z,12.95
2023-01-25T18:37:18.722Z,11.95
2023-01-25T18:41:01.163Z,13.93
2023-01-25T18:44:48.078Z,14.32
2023-01-25T18:52:12.656Z,12.20
2023-01-25T18:56:02.540Z,13.45
2023-01-25T18:59:44.968Z,13.30
2023-01-25T19:03:26.819Z,13.18
2023-01-25T19:07:09.095Z,13.48
2023-01-25T19:10:52.340Z,13.88
2023-01-25T19:14:34.242Z,13.13
2023-01-25T19:18:16.135Z,16.95
2023-01-25T19:22:01.613Z,15.75
2023-01-25T19:25:43.527Z,15.00
2023-01-25T19:29:25.457Z,11.02
2023-01-25T19:33:07.359Z,9.68
2023-01-25T19:36:50.202Z,8.85
2023-01-25T19:40:32.177Z,8.63
2023-01-25T19:44:14.852Z,8.02
2023-01-25T19:47:56.741Z,8.63
2023-01-25T19:51:41.521Z,8.60
2023-01-25T19:55:23.693Z,8.73
2023-01-25T19:59:08.086Z,8.88
2023-01-25T20:02:50.037Z,9.93
2023-01-25T20:06:32.625Z,8.57
2023-01-25T20:10:14.633Z,8.27
2023-01-25T20:13:59.983Z,7.90
2023-01-25T20:17:43.536Z,7.95
2023-01-25T20:21:26.728Z,7.28
2023-01-25T20:25:09.195Z,6.95
2023-01-25T20:28:52.777Z,6.13
2023-01-25T20:32:36.386Z,6.18
2023-01-25T20:36:18.566Z,5.18
2023-01-25T20:40:00.493Z,4.88
2023-01-25T20:43:47.437Z,3.88
2023-01-25T20:47:29.404Z,4.50
2023-01-25T20:51:17.089Z,3.25
2023-01-25T20:54:59.133Z,3.25
2023-01-25T20:58:42.233Z,2.83
2023-01-25T21:02:24.179Z,2.20
2023-01-25T21:06:07.212Z,2.20
2023-01-25T21:09:49.122Z,1.88
2023-01-25T21:13:31.011Z,1.65
2023-01-25T21:17:14.367Z,2.00
2023-01-25T21:21:04.668Z,1.63
2023-01-25T21:24:46.557Z,1.52
2023-01-25T21:28:29.123Z,1.60
2023-01-25T21:32:11.100Z,1.92
2023-01-25T21:35:54.917Z,1.60
2023-01-25T21:39:36.812Z,1.30
2023-01-25T21:43:18.727Z,1.70
2023-01-25T21:47:29.346Z,1.85
2023-01-25T21:51:21.109Z,1.48
2023-01-25T21:55:03.237Z,1.95
2023-01-25T21:58:47.707Z,1.60
2023-01-25T22:02:29.690Z,1.63
2023-01-25T22:06:11.565Z,1.88
2023-01-25T22:09:53.431Z,1.30
2023-01-25T22:13:35.299Z,1.45
2023-01-25T22:17:19.881Z,1.70
2023-01-25T22:21:04.045Z,2.10
2023-01-25T22:24:48.120Z,1.80
2023-01-25T22:28:34.907Z,1.40
2023-01-25T22:32:16.803Z,1.42
2023-01-25T22:35:58.802Z,2.15
2023-01-25T22:39:40.722Z,1.52
2023-01-25T22:43:22.571Z,1.80
2023-01-25T22:47:04.577Z,1.88
2023-01-25T22:50:46.682Z,1.80
2023-01-25T22:54:28.558Z,1.52
2023-01-25T22:58:10.926Z,1.67
2023-01-25T23:01:52.842Z,2.10
2023-01-25T23:05:34.773Z,1.80
2023-01-25T23:09:16.689Z,2.22
2023-01-25T23:12:58.559Z,2.25
2023-01-25T23:16:42.281Z,1.48
2023-01-25T23:20:24.142Z,1.52
2023-01-25T23:24:06.431Z,1.58
2023-01-25T23:27:49.362Z,1.30
2023-01-25T23:31:31.445Z,1.58
2023-01-25T23:35:13.421Z,1.80
2023-01-25T23:38:56.428Z,1.90
2023-01-25T23:42:38.878Z,1.48
2023-01-25T23:46:21.768Z,1.60
2023-01-25T23:50:04.953Z,1.73
2023-01-25T23:53:47.722Z,1.55
2023-01-25T23:57:29.702Z,1.88
